KDEN/DEN METAR and TAF weather

Enter ICAO airport designator
Station Type Date Time Source
KDEN METAR 2018/12/12 22:53 UTC NOAA

KDEN 122253Z 29021G31KT 10SM FEW080 BKN110 BKN150 BKN200 09/M08 A2965 RMK AO2 PK WND 29033/2205 SLP024 T00941083


Station Type Date Time Source
KDEN Decoded METAR 2018/12/12 22:53 UTC NOAA

DENVER INTERNATIONAL AIRPORT, CO, United States (KDEN) 39-52N 104-40W 1640M
Dec 12, 2018 - 05:53 PM EST / 2018.12.12 2253 UTC
Wind: from the WNW (290 degrees) at 24 MPH (21 KT) gusting to 36 MPH (31 KT):0
Visibility: 10 mile(s):0
Sky conditions: mostly cloudy
Temperature: 48.9 F (9.4 C)
Dew Point: 17.1 F (-8.3 C)
Relative Humidity: 27%
Pressure (altimeter): 29.65 in. Hg (1004 hPa)
ob: KDEN 122253Z 29021G31KT 10SM FEW080 BKN110 BKN150 BKN200 09/M08 A2965 RMK AO2 PK WND 29033/2205 SLP024 T00941083
cycle: 23

Station Type Date Time Source
KDEN TAF 2018/12/12 22:18 UTC NOAA

TAF
AMD KDEN 122216Z 1222/1324 28018G28KT P6SM SCT120 BKN150
FM122300 32014G25KT P6SM BKN100 OVC150
FM130200 34020G33KT P6SM VCSH SCT045 BKN090
FM130900 29012KT P6SM FEW060 SCT120
FM131500 20006KT P6SM FEW070 FEW130


Example: see airport list